createdAt,value
2022-09-20T00:00:03.176Z,100.00
2022-09-20T00:02:07.725Z,100.00
2022-09-20T00:04:11.139Z,100.00
2022-09-20T00:06:16.334Z,100.00
2022-09-20T00:08:19.242Z,100.00
2022-09-20T00:10:23.129Z,100.00
2022-09-20T00:12:35.570Z,100.00
2022-09-20T00:14:38.389Z,100.00
2022-09-20T00:16:42.454Z,100.00
2022-09-20T00:18:45.316Z,100.00
2022-09-20T00:20:50.153Z,100.00
2022-09-20T00:22:53.569Z,100.00
2022-09-20T00:24:56.309Z,100.00
2022-09-20T00:26:59.082Z,100.00
2022-09-20T00:29:03.766Z,100.00
2022-09-20T00:31:07.991Z,100.00
2022-09-20T00:33:10.737Z,100.00
2022-09-20T00:35:12.539Z,100.00
2022-09-20T00:37:15.512Z,100.00
2022-09-20T00:39:18.347Z,100.00
2022-09-20T00:41:21.141Z,100.00
2022-09-20T00:43:37.847Z,100.00
2022-09-20T00:45:44.011Z,100.00
2022-09-20T00:47:51.227Z,100.00
2022-09-20T00:49:59.609Z,100.00
2022-09-20T00:52:03.340Z,100.00
2022-09-20T00:54:08.905Z,100.00
2022-09-20T00:56:16.933Z,100.00
2022-09-20T00:58:21.161Z,100.00
2022-09-20T01:00:24.142Z,100.00
2022-09-20T01:02:33.570Z,100.00
2022-09-20T01:04:40.479Z,100.00
2022-09-20T01:06:45.908Z,100.00
2022-09-20T01:08:53.109Z,100.00
2022-09-20T01:10:55.979Z,100.00
2022-09-20T01:12:58.992Z,100.00
2022-09-20T01:15:03.578Z,100.00
2022-09-20T01:17:07.288Z,100.00
2022-09-20T01:19:18.955Z,100.00
2022-09-20T01:21:22.602Z,100.00
2022-09-20T01:23:38.984Z,100.00
2022-09-20T01:25:58.866Z,100.00
2022-09-20T01:28:03.156Z,100.00
2022-09-20T01:30:09.436Z,100.00
2022-09-20T01:32:14.753Z,100.00
2022-09-20T01:34:22.781Z,100.00
2022-09-20T01:36:30.096Z,100.00
2022-09-20T01:38:43.613Z,100.00
2022-09-20T01:40:52.530Z,100.00
2022-09-20T01:43:04.775Z,100.00
2022-09-20T01:45:19.984Z,100.00
2022-09-20T01:47:32.133Z,100.00
2022-09-20T01:49:46.968Z,100.00
2022-09-20T01:52:27.175Z,100.00
2022-09-20T01:55:14.635Z,100.00
2022-09-20T01:57:53.320Z,100.00
2022-09-20T02:00:12.093Z,100.00
2022-09-20T02:02:35.987Z,100.00
2022-09-20T02:05:06.169Z,100.00
2022-09-20T02:07:39.037Z,100.00
2022-09-20T02:10:08.414Z,100.00
2022-09-20T02:12:39.087Z,100.00
2022-09-20T02:14:51.128Z,100.00
2022-09-20T02:16:58.095Z,100.00
2022-09-20T02:19:22.365Z,100.00
2022-09-20T02:21:34.818Z,100.00
2022-09-20T02:23:45.498Z,100.00
2022-09-20T02:26:03.923Z,100.00
2022-09-20T02:28:22.517Z,100.00
2022-09-20T02:30:38.271Z,100.00
2022-09-20T02:33:12.275Z,100.00
2022-09-20T02:35:29.974Z,100.00
2022-09-20T02:38:04.181Z,100.00
2022-09-20T02:40:22.707Z,100.00
2022-09-20T02:42:32.398Z,100.00
2022-09-20T02:44:47.141Z,100.00
2022-09-20T02:47:01.642Z,100.00
2022-09-20T02:49:15.585Z,100.00
2022-09-20T02:51:25.717Z,100.00
2022-09-20T02:53:41.295Z,100.00
2022-09-20T02:55:51.650Z,100.00
2022-09-20T02:58:02.358Z,100.00
2022-09-20T03:00:10.430Z,100.00
2022-09-20T03:02:26.110Z,100.00
2022-09-20T03:04:42.860Z,100.00
2022-09-20T03:06:53.966Z,100.00
2022-09-20T03:09:05.112Z,100.00
2022-09-20T03:11:17.921Z,100.00
2022-09-20T03:13:30.094Z,100.00
2022-09-20T03:15:43.157Z,100.00
2022-09-20T03:17:51.665Z,100.00
2022-09-20T03:20:09.540Z,100.00
2022-09-20T03:22:27.947Z,100.00
2022-09-20T03:24:43.111Z,100.00
2022-09-20T03:26:56.561Z,100.00
2022-09-20T03:29:04.779Z,100.00
2022-09-20T03:31:20.672Z,100.00
2022-09-20T03:33:34.822Z,100.00
2022-09-20T03:35:53.606Z,100.00
2022-09-20T03:38:09.685Z,100.00
2022-09-20T03:40:52.287Z,100.00
2022-09-20T03:42:55.763Z,100.00
2022-09-20T03:45:23.710Z,100.00
2022-09-20T03:47:47.155Z,100.00
2022-09-20T03:50:01.136Z,100.00
2022-09-20T03:52:16.516Z,100.00
2022-09-20T03:54:52.562Z,100.00
2022-09-20T03:57:38.970Z,100.00
2022-09-20T04:00:01.713Z,100.00
2022-09-20T04:02:21.764Z,100.00
2022-09-20T04:04:31.383Z,100.00
2022-09-20T04:06:56.384Z,100.00
2022-09-20T04:09:21.717Z,100.00
2022-09-20T04:11:32.803Z,100.00
2022-09-20T04:13:41.070Z,100.00
2022-09-20T04:15:55.433Z,100.00
2022-09-20T04:18:04.581Z,100.00
2022-09-20T04:20:17.983Z,100.00
2022-09-20T04:22:22.890Z,100.00
2022-09-20T04:24:39.054Z,100.00
2022-09-20T04:26:48.281Z,100.00
2022-09-20T04:28:56.772Z,100.00
2022-09-20T04:31:20.126Z,100.00
2022-09-20T04:33:29.308Z,100.00
2022-09-20T04:35:58.145Z,100.00
2022-09-20T04:38:04.829Z,100.00
2022-09-20T04:40:22.571Z,100.00
2022-09-20T04:42:58.989Z,100.00
2022-09-20T04:45:28.996Z,100.00
2022-09-20T04:48:03.359Z,100.00
2022-09-20T04:50:28.402Z,100.00
2022-09-20T04:53:05.321Z,100.00
2022-09-20T04:55:36.206Z,100.00
2022-09-20T04:58:20.524Z,100.00
2022-09-20T05:00:25.479Z,100.00
2022-09-20T05:03:00.528Z,100.00
2022-09-20T05:05:39.577Z,100.00
2022-09-20T05:08:21.054Z,100.00
2022-09-20T05:10:52.347Z,100.00
2022-09-20T05:13:15.747Z,100.00
2022-09-20T05:15:43.040Z,100.00
2022-09-20T05:18:02.740Z,100.00
2022-09-20T05:20:27.505Z,100.00
2022-09-20T05:22:59.303Z,100.00
2022-09-20T05:25:32.451Z,100.00
2022-09-20T05:27:44.707Z,100.00
2022-09-20T05:29:52.950Z,100.00
2022-09-20T05:32:05.026Z,100.00
2022-09-20T05:34:18.166Z,100.00
2022-09-20T05:36:33.654Z,100.00
2022-09-20T05:38:48.500Z,100.00
2022-09-20T05:41:08.169Z,100.00
2022-09-20T05:43:16.079Z,100.00
2022-09-20T05:45:35.064Z,100.00
2022-09-20T05:47:45.638Z,100.00
2022-09-20T05:49:59.827Z,100.00
2022-09-20T05:52:21.756Z,100.00
2022-09-20T05:54:52.718Z,100.00
2022-09-20T05:57:06.105Z,100.00
2022-09-20T05:59:29.670Z,100.00
2022-09-20T06:01:35.494Z,100.00
2022-09-20T06:03:42.541Z,100.00
2022-09-20T06:05:56.451Z,100.00
2022-09-20T06:08:22.761Z,100.00
2022-09-20T06:10:39.737Z,100.00
2022-09-20T06:12:53.574Z,100.00
2022-09-20T06:15:04.779Z,100.00
2022-09-20T06:17:17.631Z,100.00
2022-09-20T06:19:32.376Z,100.00
2022-09-20T06:21:46.649Z,100.00
2022-09-20T06:23:49.540Z,100.00
2022-09-20T06:25:57.632Z,100.00
2022-09-20T06:28:06.157Z,100.00
2022-09-20T06:30:17.948Z,100.00
2022-09-20T06:32:20.898Z,100.00
2022-09-20T06:34:23.812Z,100.00
2022-09-20T06:36:48.134Z,100.00
2022-09-20T06:39:24.417Z,100.00
2022-09-20T06:41:30.588Z,100.00
2022-09-20T06:43:37.062Z,100.00
2022-09-20T06:45:41.565Z,100.00
2022-09-20T06:47:44.338Z,100.00
2022-09-20T06:49:47.725Z,100.00
2022-09-20T06:51:50.863Z,100.00
2022-09-20T06:53:55.413Z,100.00
2022-09-20T06:55:58.983Z,100.00
2022-09-20T06:58:01.796Z,100.00
2022-09-20T07:00:06.295Z,100.00
2022-09-20T07:02:10.960Z,100.00
2022-09-20T07:04:13.948Z,100.00
2022-09-20T07:06:19.813Z,100.00
2022-09-20T07:08:22.751Z,100.00
2022-09-20T07:10:28.081Z,100.00
2022-09-20T07:12:33.519Z,100.00
2022-09-20T07:14:36.570Z,100.00
2022-09-20T07:16:39.935Z,100.00
2022-09-20T07:18:44.794Z,100.00
2022-09-20T07:20:47.795Z,100.00
2022-09-20T07:22:50.709Z,100.00
2022-09-20T07:24:53.575Z,100.00
2022-09-20T07:26:56.932Z,100.00
2022-09-20T07:29:01.910Z,100.00
2022-09-20T07:31:04.706Z,100.00
2022-09-20T07:33:08.095Z,100.00
2022-09-20T07:35:13.368Z,100.00
2022-09-20T07:37:17.977Z,100.00
2022-09-20T07:39:20.740Z,100.00
2022-09-20T07:41:23.772Z,100.00
2022-09-20T07:43:26.874Z,100.00
2022-09-20T07:45:29.677Z,100.00
2022-09-20T07:47:35.195Z,100.00
2022-09-20T07:49:38.242Z,100.00
2022-09-20T07:51:42.598Z,100.00
2022-09-20T07:53:45.327Z,100.00
2022-09-20T07:55:58.251Z,100.00
2022-09-20T07:58:00.983Z,100.00
2022-09-20T08:00:06.217Z,100.00
2022-09-20T08:02:16.437Z,100.00
2022-09-20T08:04:19.397Z,100.00
2022-09-20T08:06:22.354Z,100.00
2022-09-20T08:08:26.504Z,100.00
2022-09-20T08:10:29.324Z,100.00
2022-09-20T08:14:55.865Z,100.00
2022-09-20T08:17:00.228Z,100.00
2022-09-20T08:19:04.132Z,100.00
2022-09-20T08:21:08.293Z,100.00
2022-09-20T08:23:23.283Z,100.00
2022-09-20T08:25:28.367Z,100.00
2022-09-20T08:27:31.759Z,100.00
2022-09-20T08:29:34.888Z,100.00
2022-09-20T08:31:42.385Z,100.00
2022-09-20T08:33:45.985Z,100.00
2022-09-20T08:35:50.132Z,100.00
2022-09-20T08:37:55.937Z,100.00
2022-09-20T08:39:59.526Z,100.00
2022-09-20T08:42:13.485Z,100.00
2022-09-20T08:44:25.182Z,100.00
2022-09-20T08:46:32.031Z,100.00
2022-09-20T08:48:35.444Z,100.00
2022-09-20T08:50:38.629Z,100.00
2022-09-20T08:52:42.739Z,100.00
2022-09-20T08:54:45.983Z,100.00
2022-09-20T08:56:51.127Z,100.00
2022-09-20T08:58:56.529Z,100.00
2022-09-20T09:01:00.095Z,100.00
2022-09-20T09:03:06.918Z,100.00
2022-09-20T09:05:25.021Z,95.36
2022-09-20T09:07:28.957Z,97.66
2022-09-20T09:09:37.649Z,99.48
2022-09-20T09:11:45.823Z,100.00
2022-09-20T09:13:54.166Z,100.00
2022-09-20T09:16:02.800Z,98.20
2022-09-20T09:18:10.434Z,93.71
2022-09-20T09:20:21.679Z,96.07
2022-09-20T09:22:27.651Z,90.05
2022-09-20T09:24:32.247Z,91.58
2022-09-20T09:26:38.859Z,89.56
2022-09-20T09:28:41.733Z,83.50
2022-09-20T09:30:46.795Z,83.04
2022-09-20T09:32:51.323Z,79.09
2022-09-20T09:34:54.234Z,82.61
2022-09-20T09:36:58.383Z,77.76
2022-09-20T09:39:17.362Z,70.97
2022-09-20T09:41:26.703Z,70.37
2022-09-20T09:43:32.597Z,67.75
2022-09-20T09:45:39.639Z,67.88
2022-09-20T09:47:47.585Z,68.41
2022-09-20T09:50:02.620Z,75.30
2022-09-20T09:52:14.400Z,75.07
2022-09-20T09:54:27.175Z,81.33
2022-09-20T09:56:42.750Z,77.26
2022-09-20T09:59:00.980Z,77.90
2022-09-20T10:01:08.207Z,78.31
2022-09-20T10:03:31.052Z,76.74
2022-09-20T10:05:45.453Z,78.00
2022-09-20T10:07:56.187Z,79.06
2022-09-20T10:10:08.817Z,77.93
2022-09-20T10:12:25.648Z,79.21
2022-09-20T10:14:42.352Z,80.70
2022-09-20T10:17:02.081Z,80.63
2022-09-20T10:19:12.537Z,81.85
2022-09-20T10:21:31.160Z,81.06
2022-09-20T10:24:04.740Z,78.35
2022-09-20T10:26:21.607Z,78.24
2022-09-20T10:28:48.513Z,75.25
2022-09-20T10:31:05.238Z,74.80
2022-09-20T10:33:18.367Z,74.78
2022-09-20T10:35:27.787Z,70.09
2022-09-20T10:37:49.075Z,77.51
2022-09-20T10:40:02.326Z,73.02
2022-09-20T10:42:36.561Z,71.91
2022-09-20T10:44:52.705Z,70.89
2022-09-20T10:47:02.719Z,71.62
2022-09-20T10:49:19.378Z,70.14
2022-09-20T10:51:32.867Z,64.91
2022-09-20T10:53:45.215Z,64.89
2022-09-20T10:55:54.907Z,66.91
2022-09-20T10:58:10.969Z,66.58
2022-09-20T11:00:22.261Z,68.22
2022-09-20T11:02:42.612Z,63.27
2022-09-20T11:05:24.531Z,64.01
2022-09-20T11:07:38.930Z,64.46
2022-09-20T11:09:47.336Z,65.44
2022-09-20T11:11:54.969Z,63.99
2022-09-20T11:14:02.609Z,63.41
2022-09-20T11:16:11.258Z,63.95
2022-09-20T11:18:23.535Z,64.81
2022-09-20T11:20:30.668Z,64.98
2022-09-20T11:22:40.191Z,66.27
2022-09-20T11:24:48.898Z,65.24
2022-09-20T11:26:54.611Z,62.91
2022-09-20T11:29:04.119Z,64.37
2022-09-20T11:31:15.799Z,62.41
2022-09-20T11:33:24.698Z,66.17
2022-09-20T11:35:32.692Z,64.92
2022-09-20T11:37:39.145Z,62.79
2022-09-20T11:39:48.608Z,62.59
2022-09-20T11:41:56.031Z,60.73
2022-09-20T11:44:04.084Z,60.55
2022-09-20T11:46:10.754Z,61.68
2022-09-20T11:48:22.795Z,61.08
2022-09-20T11:50:57.073Z,60.12
2022-09-20T11:53:14.830Z,59.04
2022-09-20T11:55:38.147Z,60.05
2022-09-20T11:57:41.022Z,61.34
2022-09-20T11:59:51.100Z,60.15
2022-09-20T12:01:59.414Z,62.44
2022-09-20T12:04:32.899Z,63.77
2022-09-20T12:06:39.758Z,61.07
2022-09-20T12:08:43.753Z,60.33
2022-09-20T12:10:58.005Z,59.45
2022-09-20T12:13:03.147Z,59.37
2022-09-20T12:15:20.600Z,57.90
2022-09-20T12:18:10.512Z,53.01
2022-09-20T12:20:49.999Z,50.41
2022-09-20T12:22:52.804Z,52.84
2022-09-20T12:25:37.170Z,54.91
2022-09-20T12:27:59.113Z,57.00
2022-09-20T12:30:16.055Z,54.14
2022-09-20T12:32:34.935Z,53.48
2022-09-20T12:34:39.040Z,53.68
2022-09-20T12:36:43.550Z,52.56
2022-09-20T12:38:59.275Z,52.25
2022-09-20T12:41:04.852Z,56.72
2022-09-20T12:43:19.050Z,54.78
2022-09-20T12:45:21.870Z,55.21
2022-09-20T12:47:27.682Z,56.60
2022-09-20T12:49:58.639Z,52.89
2022-09-20T12:52:18.997Z,53.35
2022-09-20T12:54:22.070Z,50.96
2022-09-20T12:56:26.882Z,54.31
2022-09-20T12:58:38.062Z,52.71
2022-09-20T13:00:45.226Z,52.79
2022-09-20T13:02:59.779Z,54.09
2022-09-20T13:05:02.604Z,49.15
2022-09-20T13:07:44.598Z,49.03
2022-09-20T13:09:49.411Z,50.01
2022-09-20T13:11:55.849Z,51.15
2022-09-20T13:14:04.729Z,48.65
2022-09-20T13:16:08.146Z,48.70
2022-09-20T13:18:15.452Z,48.02
2022-09-20T13:20:22.525Z,51.65
2022-09-20T13:22:28.144Z,52.12
2022-09-20T13:24:35.609Z,53.01
2022-09-20T13:26:45.022Z,52.32
2022-09-20T13:28:51.477Z,53.21
2022-09-20T13:31:26.816Z,50.58
2022-09-20T13:33:29.718Z,51.79
2022-09-20T13:35:32.730Z,51.85
2022-09-20T13:37:36.792Z,54.29
2022-09-20T13:39:41.270Z,53.23
2022-09-20T13:41:44.190Z,54.99
2022-09-20T13:43:50.035Z,55.60
2022-09-20T13:45:56.223Z,52.50
2022-09-20T13:48:01.757Z,54.34
2022-09-20T13:50:18.580Z,53.86
2022-09-20T13:52:26.635Z,52.73
2022-09-20T13:54:30.826Z,53.28
2022-09-20T13:56:33.699Z,53.79
2022-09-20T13:58:37.715Z,56.19
2022-09-20T14:00:47.475Z,54.62
2022-09-20T14:02:53.737Z,54.58
2022-09-20T14:05:01.340Z,54.18
2022-09-20T14:07:08.497Z,54.52
2022-09-20T14:09:31.095Z,54.41
2022-09-20T14:11:36.891Z,57.58
2022-09-20T14:13:42.781Z,54.85
2022-09-20T14:15:47.779Z,54.60
2022-09-20T14:17:52.189Z,58.95
2022-09-20T14:19:58.345Z,56.72
2022-09-20T14:22:05.232Z,59.03
2022-09-20T14:24:24.793Z,57.75
2022-09-20T14:26:29.904Z,58.87
2022-09-20T14:28:32.672Z,58.48
2022-09-20T14:30:38.017Z,55.98
2022-09-20T14:32:48.220Z,57.63
2022-09-20T14:35:00.804Z,58.99
2022-09-20T14:37:07.757Z,58.48
2022-09-20T14:39:16.843Z,56.71
2022-09-20T14:41:28.755Z,53.68
2022-09-20T14:43:34.600Z,53.95
2022-09-20T14:45:39.748Z,52.13
2022-09-20T14:47:55.313Z,52.12
2022-09-20T14:49:59.596Z,56.02
2022-09-20T14:52:36.687Z,52.34
2022-09-20T14:54:39.651Z,50.84
2022-09-20T14:56:49.451Z,50.56
2022-09-20T14:59:07.562Z,51.73
2022-09-20T15:01:24.587Z,50.40
2022-09-20T15:03:31.023Z,47.35
2022-09-20T15:05:35.446Z,47.88
2022-09-20T15:07:38.363Z,46.41
2022-09-20T15:09:41.199Z,43.82
2022-09-20T15:11:43.937Z,42.48
2022-09-20T15:13:46.978Z,41.64
2022-09-20T15:15:52.148Z,44.00
2022-09-20T15:17:55.497Z,45.12
2022-09-20T15:19:59.352Z,46.91
2022-09-20T15:22:04.046Z,46.79
2022-09-20T15:24:07.246Z,47.13
2022-09-20T15:26:13.515Z,46.19
2022-09-20T15:28:18.009Z,44.38
2022-09-20T15:30:21.174Z,46.70
2022-09-20T15:32:23.885Z,46.72
2022-09-20T15:34:27.974Z,50.42
2022-09-20T15:36:32.144Z,50.29
2022-09-20T15:38:36.438Z,55.19
2022-09-20T15:40:40.787Z,54.73
2022-09-20T15:42:43.866Z,53.53
2022-09-20T15:44:47.303Z,51.58
2022-09-20T15:46:51.385Z,49.73
2022-09-20T15:48:54.411Z,48.24
2022-09-20T15:51:02.268Z,49.81
2022-09-20T15:53:05.861Z,48.03
2022-09-20T15:55:10.702Z,52.77
2022-09-20T15:57:13.423Z,52.97
2022-09-20T15:59:17.254Z,53.65
2022-09-20T16:01:20.581Z,57.18
2022-09-20T16:03:29.731Z,60.91
2022-09-20T16:05:32.553Z,62.90
2022-09-20T16:07:35.832Z,60.84
2022-09-20T16:09:39.372Z,60.89
2022-09-20T16:11:43.669Z,62.66
2022-09-20T16:13:46.474Z,61.82
2022-09-20T16:15:54.854Z,60.67
2022-09-20T16:18:15.202Z,59.48
2022-09-20T16:20:17.978Z,59.32
2022-09-20T16:22:21.085Z,60.10
2022-09-20T16:24:25.598Z,61.15
2022-09-20T16:26:29.200Z,61.59
2022-09-20T16:28:33.824Z,64.92
2022-09-20T16:30:37.681Z,68.80
2022-09-20T16:32:40.714Z,71.40
2022-09-20T16:34:44.649Z,72.15
2022-09-20T16:36:48.894Z,74.08
2022-09-20T16:38:51.972Z,75.97
2022-09-20T16:40:55.676Z,74.21
2022-09-20T16:42:58.703Z,76.17
2022-09-20T16:45:03.024Z,75.82
2022-09-20T16:47:07.956Z,76.40
2022-09-20T16:49:12.465Z,75.84
2022-09-20T16:51:15.919Z,78.58
2022-09-20T16:53:18.642Z,78.03
2022-09-20T16:55:21.432Z,78.54
2022-09-20T16:57:24.178Z,79.17
2022-09-20T16:59:27.062Z,81.11
2022-09-20T17:01:31.971Z,77.42
2022-09-20T17:03:34.753Z,72.21
2022-09-20T17:05:37.480Z,70.40
2022-09-20T17:07:40.580Z,72.09
2022-09-20T17:09:43.308Z,70.52
2022-09-20T17:11:48.939Z,71.61
2022-09-20T17:13:53.738Z,73.97
2022-09-20T17:16:02.084Z,77.77
2022-09-20T17:18:07.341Z,79.93
2022-09-20T17:20:10.275Z,83.19
2022-09-20T17:22:13.353Z,86.32
2022-09-20T17:24:17.067Z,83.00
2022-09-20T17:26:23.061Z,85.08
2022-09-20T17:28:26.125Z,84.53
2022-09-20T17:30:29.078Z,83.92
2022-09-20T17:32:31.825Z,84.67
2022-09-20T17:34:36.287Z,83.21
2022-09-20T17:36:40.685Z,84.94
2022-09-20T17:38:43.765Z,82.80
2022-09-20T17:40:46.488Z,84.00
2022-09-20T17:42:49.987Z,84.51
2022-09-20T17:44:52.672Z,86.80
2022-09-20T17:46:55.557Z,86.08
2022-09-20T17:49:00.554Z,87.06
2022-09-20T17:51:09.223Z,86.33
2022-09-20T17:53:14.969Z,86.61
2022-09-20T17:55:17.709Z,87.76
2022-09-20T17:57:20.382Z,89.94
2022-09-20T17:59:23.145Z,93.12
2022-09-20T18:01:27.280Z,93.88
2022-09-20T18:03:30.265Z,96.37
2022-09-20T18:05:32.998Z,95.65
2022-09-20T18:07:37.121Z,95.44
2022-09-20T18:09:39.840Z,95.27
2022-09-20T18:11:45.443Z,94.96
2022-09-20T18:13:48.273Z,95.77
2022-09-20T18:15:52.017Z,95.03
2022-09-20T18:17:55.448Z,95.15
2022-09-20T18:19:58.194Z,94.44
2022-09-20T18:22:01.400Z,94.44
2022-09-20T18:24:06.990Z,93.07
2022-09-20T18:26:23.514Z,91.62
2022-09-20T18:28:26.653Z,92.30
2022-09-20T18:30:29.682Z,91.12
2022-09-20T18:32:32.639Z,89.96
2022-09-20T18:34:35.419Z,90.55
2022-09-20T18:36:40.254Z,91.43
2022-09-20T18:38:45.485Z,93.90
2022-09-20T18:40:58.423Z,95.33
2022-09-20T18:43:04.543Z,93.58
2022-09-20T18:45:09.080Z,93.75
2022-09-20T18:47:12.161Z,93.14
2022-09-20T18:49:16.973Z,92.98
2022-09-20T18:51:20.625Z,92.02
2022-09-20T18:53:26.217Z,92.44
2022-09-20T18:55:29.999Z,91.92
2022-09-20T18:57:34.751Z,92.43
2022-09-20T18:59:38.242Z,93.10
2022-09-20T19:02:18.109Z,94.63
2022-09-20T19:04:50.322Z,93.38
2022-09-20T19:07:13.420Z,94.89
2022-09-20T19:09:25.245Z,95.63
2022-09-20T19:11:38.223Z,95.06
2022-09-20T19:13:53.426Z,92.71
2022-09-20T19:16:18.725Z,93.76
2022-09-20T19:18:44.357Z,94.84
2022-09-20T19:20:51.271Z,95.43
2022-09-20T19:23:05.365Z,95.00
2022-09-20T19:25:32.122Z,94.33
2022-09-20T19:27:35.578Z,95.65
2022-09-20T19:29:40.838Z,95.09
2022-09-20T19:31:44.117Z,94.59
2022-09-20T19:33:48.497Z,96.14
2022-09-20T19:35:52.557Z,97.14
2022-09-20T19:38:04.882Z,100.00
2022-09-20T19:40:35.081Z,100.00
2022-09-20T19:42:47.686Z,100.00
2022-09-20T19:45:01.905Z,100.00
2022-09-20T19:47:18.140Z,100.00
2022-09-20T19:49:28.590Z,100.00
2022-09-20T19:51:36.761Z,100.00
2022-09-20T19:53:40.391Z,100.00
2022-09-20T19:55:47.631Z,100.00
2022-09-20T19:57:51.055Z,100.00
2022-09-20T19:59:55.767Z,100.00
2022-09-20T20:01:59.227Z,100.00
2022-09-20T20:04:03.735Z,100.00
2022-09-20T20:06:16.927Z,100.00
2022-09-20T20:08:25.012Z,100.00
2022-09-20T20:10:35.167Z,100.00
2022-09-20T20:12:50.950Z,100.00
2022-09-20T20:15:04.321Z,100.00
2022-09-20T20:17:19.779Z,100.00
2022-09-20T20:19:35.886Z,100.00
2022-09-20T20:21:47.632Z,100.00
2022-09-20T20:24:04.655Z,100.00
2022-09-20T20:26:10.160Z,100.00
2022-09-20T20:28:12.891Z,100.00
2022-09-20T20:30:17.148Z,100.00
2022-09-20T20:32:19.893Z,100.00
2022-09-20T20:34:22.871Z,100.00
2022-09-20T20:36:25.612Z,100.00
2022-09-20T20:38:30.094Z,100.00
2022-09-20T20:40:32.949Z,100.00
2022-09-20T20:42:35.793Z,100.00
2022-09-20T20:44:38.517Z,100.00
2022-09-20T20:46:42.717Z,100.00
2022-09-20T20:48:45.982Z,100.00
2022-09-20T20:50:48.726Z,100.00
2022-09-20T20:52:52.994Z,100.00
2022-09-20T20:54:57.482Z,100.00
2022-09-20T20:57:00.603Z,100.00
2022-09-20T20:59:05.214Z,100.00
2022-09-20T21:01:13.729Z,100.00
2022-09-20T21:03:18.007Z,100.00
2022-09-20T21:05:23.619Z,100.00
2022-09-20T21:07:26.390Z,100.00
2022-09-20T21:09:29.148Z,100.00
2022-09-20T21:11:33.699Z,100.00
2022-09-20T21:13:36.665Z,100.00
2022-09-20T21:15:39.466Z,100.00
2022-09-20T21:17:42.235Z,100.00
2022-09-20T21:19:46.387Z,100.00
2022-09-20T21:21:49.138Z,100.00
2022-09-20T21:23:54.151Z,100.00
2022-09-20T21:26:07.772Z,100.00
2022-09-20T21:28:10.516Z,100.00
2022-09-20T21:30:14.030Z,100.00
2022-09-20T21:32:16.769Z,100.00
2022-09-20T21:34:19.526Z,100.00
2022-09-20T21:36:25.255Z,100.00
2022-09-20T21:38:29.111Z,100.00
2022-09-20T21:40:31.884Z,100.00
2022-09-20T21:42:34.627Z,100.00
2022-09-20T21:44:37.450Z,100.00
2022-09-20T21:46:41.998Z,100.00
2022-09-20T21:48:45.282Z,100.00
2022-09-20T21:50:48.038Z,100.00
2022-09-20T21:52:52.068Z,100.00
2022-09-20T21:54:54.857Z,100.00
2022-09-20T21:56:59.273Z,100.00
2022-09-20T21:59:04.042Z,100.00
2022-09-20T22:01:11.294Z,100.00
2022-09-20T22:03:14.335Z,100.00
2022-09-20T22:05:17.232Z,100.00
2022-09-20T22:07:19.945Z,100.00
2022-09-20T22:09:25.016Z,100.00
2022-09-20T22:11:29.547Z,100.00
2022-09-20T22:13:32.499Z,100.00
2022-09-20T22:15:35.293Z,100.00
2022-09-20T22:17:37.996Z,100.00
2022-09-20T22:19:40.770Z,100.00
2022-09-20T22:21:45.081Z,100.00
2022-09-20T22:23:50.447Z,100.00
2022-09-20T22:26:01.154Z,100.00
2022-09-20T22:28:03.902Z,100.00
2022-09-20T22:30:08.342Z,100.00
2022-09-20T22:32:11.114Z,100.00
2022-09-20T22:34:16.770Z,100.00
2022-09-20T22:36:22.439Z,100.00
2022-09-20T22:38:25.173Z,100.00
2022-09-20T22:40:28.046Z,100.00
2022-09-20T22:42:32.118Z,100.00
2022-09-20T22:44:34.901Z,100.00
2022-09-20T22:46:38.128Z,100.00
2022-09-20T22:48:41.799Z,100.00
2022-09-20T22:50:44.554Z,100.00
2022-09-20T22:52:47.479Z,100.00
2022-09-20T22:54:50.308Z,100.00
2022-09-20T22:56:53.089Z,100.00
2022-09-20T22:58:59.981Z,100.00
2022-09-20T23:01:11.519Z,100.00
2022-09-20T23:03:14.341Z,100.00
2022-09-20T23:05:18.128Z,100.00
2022-09-20T23:07:20.895Z,100.00
2022-09-20T23:09:24.941Z,100.00
2022-09-20T23:11:28.901Z,100.00
2022-09-20T23:13:31.840Z,100.00
2022-09-20T23:15:36.059Z,100.00
2022-09-20T23:17:41.877Z,100.00
2022-09-20T23:19:44.806Z,100.00
2022-09-20T23:21:47.638Z,100.00
2022-09-20T23:23:53.936Z,100.00
2022-09-20T23:25:57.101Z,100.00
2022-09-20T23:27:59.809Z,100.00
2022-09-20T23:30:02.512Z,100.00
2022-09-20T23:32:06.647Z,100.00
2022-09-20T23:34:09.407Z,100.00
2022-09-20T23:36:12.196Z,100.00
2022-09-20T23:38:15.149Z,100.00
2022-09-20T23:40:17.950Z,100.00
2022-09-20T23:42:20.803Z,100.00
2022-09-20T23:44:23.536Z,100.00
2022-09-20T23:46:27.586Z,100.00
2022-09-20T23:48:32.160Z,100.00
2022-09-20T23:50:35.301Z,100.00
2022-09-20T23:52:38.046Z,100.00
2022-09-20T23:54:40.737Z,100.00
2022-09-20T23:56:43.518Z,100.00
2022-09-20T23:58:47.969Z,100.00
